KHIE/HIE METAR and TAF weather

Enter ICAO airport designator
Station Type Date Time Source
KHIE METAR 2018/12/17 16:52 UTC NOAA

KHIE 171652Z AUTO 25004KT 10SM OVC009 01/M02 A2955 RMK AO2 SLP018 T00061017


Station Type Date Time Source
KHIE Decoded METAR 2018/12/17 16:52 UTC NOAA

MT WASHINGTON REGIONAL AIRPORT , NH, United States (KHIE) 44-22N 71-33W 318M
Dec 17, 2018 - 11:52 AM EST / 2018.12.17 1652 UTC
Wind: from the WSW (250 degrees) at 5 MPH (4 KT):0
Visibility: 10 mile(s):0
Sky conditions: overcast
Temperature: 33.1 F (0.6 C)
Windchill: 28 F (-2 C):1
Dew Point: 28.9 F (-1.7 C)
Relative Humidity: 84%
Pressure (altimeter): 29.55 in. Hg (1000 hPa)
ob: KHIE 171652Z AUTO 25004KT 10SM OVC009 01/M02 A2955 RMK AO2 SLP018 T00061017
cycle: 17

Station Type Date Time Source
KHIE TAF 2018/12/17 13:48 UTC NOAA

TAF
AMD KHIE 171246Z 1713/1812 00000KT 1SM -SN BR VCSH BKN006 OVC018
FM171500 00000KT P6SM OVC030
FM180300 31015G29KT P6SM BKN008


Example: see airport list